sensor_id;sensor_type;location;lat;lon;timestamp;P1;durP1;ratioP1;P2;durP2;ratioP2
62574;SDS011;53112;45.602;11.904;2023-03-14T00:01:47;15.93;;;10.73;;
62574;SDS011;53112;45.602;11.904;2023-03-14T00:04:13;15.93;;;9.98;;
62574;SDS011;53112;45.602;11.904;2023-03-14T00:06:39;18.23;;;11.73;;
62574;SDS011;53112;45.602;11.904;2023-03-14T00:09:05;17.05;;;11.10;;
62574;SDS011;53112;45.602;11.904;2023-03-14T00:11:32;16.92;;;10.57;;
62574;SDS011;53112;45.602;11.904;2023-03-14T00:13:57;16.67;;;10.85;;
62574;SDS011;53112;45.602;11.904;2023-03-14T00:16:25;18.83;;;10.50;;
62574;SDS011;53112;45.602;11.904;2023-03-14T00:18:51;15.38;;;10.63;;
62574;SDS011;53112;45.602;11.904;2023-03-14T00:21:17;16.25;;;10.82;;
62574;SDS011;53112;45.602;11.904;2023-03-14T00:23:44;17.90;;;11.13;;
62574;SDS011;53112;45.602;11.904;2023-03-14T00:26:11;18.73;;;11.02;;
62574;SDS011;53112;45.602;11.904;2023-03-14T00:28:38;19.05;;;10.95;;
62574;SDS011;53112;45.602;11.904;2023-03-14T00:31:05;16.80;;;10.77;;
62574;SDS011;53112;45.602;11.904;2023-03-14T00:33:32;15.52;;;10.20;;
62574;SDS011;53112;45.602;11.904;2023-03-14T00:35:59;15.57;;;10.45;;
62574;SDS011;53112;45.602;11.904;2023-03-14T00:38:26;18.27;;;10.77;;
62574;SDS011;53112;45.602;11.904;2023-03-14T00:40:53;16.13;;;11.30;;
62574;SDS011;53112;45.602;11.904;2023-03-14T00:43:19;16.73;;;11.07;;
62574;SDS011;53112;45.602;11.904;2023-03-14T00:45:52;18.63;;;11.55;;
62574;SDS011;53112;45.602;11.904;2023-03-14T00:48:19;17.90;;;11.13;;
62574;SDS011;53112;45.602;11.904;2023-03-14T00:50:45;16.00;;;10.98;;
62574;SDS011;53112;45.602;11.904;2023-03-14T00:53:11;17.20;;;11.90;;
62574;SDS011;53112;45.602;11.904;2023-03-14T00:55:37;16.23;;;11.10;;
62574;SDS011;53112;45.602;11.904;2023-03-14T00:58:04;19.85;;;11.55;;
62574;SDS011;53112;45.602;11.904;2023-03-14T01:00:30;18.63;;;12.05;;
62574;SDS011;53112;45.602;11.904;2023-03-14T01:02:56;18.30;;;12.55;;
62574;SDS011;53112;45.602;11.904;2023-03-14T01:05:22;18.67;;;12.65;;
62574;SDS011;53112;45.602;11.904;2023-03-14T01:07:48;20.92;;;13.13;;
62574;SDS011;53112;45.602;11.904;2023-03-14T01:10:14;18.73;;;12.65;;
62574;SDS011;53112;45.602;11.904;2023-03-14T01:12:41;18.38;;;12.23;;
62574;SDS011;53112;45.602;11.904;2023-03-14T01:15:07;21.40;;;13.70;;
62574;SDS011;53112;45.602;11.904;2023-03-14T01:17:33;21.88;;;13.35;;
62574;SDS011;53112;45.602;11.904;2023-03-14T01:20:00;16.90;;;12.73;;
62574;SDS011;53112;45.602;11.904;2023-03-14T01:22:26;19.35;;;12.60;;
62574;SDS011;53112;45.602;11.904;2023-03-14T01:24:52;22.33;;;13.13;;
62574;SDS011;53112;45.602;11.904;2023-03-14T01:27:18;20.80;;;13.73;;
62574;SDS011;53112;45.602;11.904;2023-03-14T01:29:43;22.55;;;13.23;;
62574;SDS011;53112;45.602;11.904;2023-03-14T01:32:09;19.40;;;13.50;;
62574;SDS011;53112;45.602;11.904;2023-03-14T01:34:35;18.13;;;12.35;;
62574;SDS011;53112;45.602;11.904;2023-03-14T01:37:01;17.33;;;12.18;;
62574;SDS011;53112;45.602;11.904;2023-03-14T01:39:27;18.77;;;12.88;;
62574;SDS011;53112;45.602;11.904;2023-03-14T01:41:53;17.60;;;12.32;;
62574;SDS011;53112;45.602;11.904;2023-03-14T01:44:19;20.10;;;12.93;;
62574;SDS011;53112;45.602;11.904;2023-03-14T01:46:46;20.17;;;12.93;;
62574;SDS011;53112;45.602;11.904;2023-03-14T01:49:31;19.35;;;12.63;;
62574;SDS011;53112;45.602;11.904;2023-03-14T01:52:05;18.77;;;12.18;;
62574;SDS011;53112;45.602;11.904;2023-03-14T01:57:14;19.63;;;12.15;;
62574;SDS011;53112;45.602;11.904;2023-03-14T01:59:52;20.95;;;11.98;;
62574;SDS011;53112;45.602;11.904;2023-03-14T02:02:26;16.42;;;11.63;;
62574;SDS011;53112;45.602;11.904;2023-03-14T02:04:54;20.92;;;12.10;;
62574;SDS011;53112;45.602;11.904;2023-03-14T02:09:50;20.50;;;11.32;;
62574;SDS011;53112;45.602;11.904;2023-03-14T02:12:18;17.15;;;12.32;;
62574;SDS011;53112;45.602;11.904;2023-03-14T02:14:45;18.88;;;11.57;;
62574;SDS011;53112;45.602;11.904;2023-03-14T02:17:13;16.52;;;10.70;;
62574;SDS011;53112;45.602;11.904;2023-03-14T02:22:34;17.30;;;11.15;;
62574;SDS011;53112;45.602;11.904;2023-03-14T02:28:05;18.33;;;11.68;;
62574;SDS011;53112;45.602;11.904;2023-03-14T02:30:31;19.27;;;11.20;;
62574;SDS011;53112;45.602;11.904;2023-03-14T02:32:59;19.60;;;11.52;;
62574;SDS011;53112;45.602;11.904;2023-03-14T02:35:29;14.45;;;10.15;;
62574;SDS011;53112;45.602;11.904;2023-03-14T02:38:00;16.33;;;10.57;;
62574;SDS011;53112;45.602;11.904;2023-03-14T02:40:28;17.45;;;10.18;;
62574;SDS011;53112;45.602;11.904;2023-03-14T02:42:54;14.43;;;10.02;;
62574;SDS011;53112;45.602;11.904;2023-03-14T02:47:47;18.05;;;10.90;;
62574;SDS011;53112;45.602;11.904;2023-03-14T02:50:20;15.98;;;9.70;;
62574;SDS011;53112;45.602;11.904;2023-03-14T02:52:49;21.25;;;9.75;;
62574;SDS011;53112;45.602;11.904;2023-03-14T02:55:19;14.10;;;9.55;;
62574;SDS011;53112;45.602;11.904;2023-03-14T02:57:47;16.30;;;10.02;;
62574;SDS011;53112;45.602;11.904;2023-03-14T03:00:13;15.60;;;9.80;;
62574;SDS011;53112;45.602;11.904;2023-03-14T03:02:40;16.40;;;9.30;;
62574;SDS011;53112;45.602;11.904;2023-03-14T03:05:06;14.27;;;8.82;;
62574;SDS011;53112;45.602;11.904;2023-03-14T03:07:32;15.90;;;9.10;;
62574;SDS011;53112;45.602;11.904;2023-03-14T03:09:58;15.25;;;9.90;;
62574;SDS011;53112;45.602;11.904;2023-03-14T03:12:24;14.90;;;8.90;;
62574;SDS011;53112;45.602;11.904;2023-03-14T03:14:50;14.95;;;8.20;;
62574;SDS011;53112;45.602;11.904;2023-03-14T03:17:16;14.93;;;9.00;;
62574;SDS011;53112;45.602;11.904;2023-03-14T03:19:42;14.40;;;8.88;;
62574;SDS011;53112;45.602;11.904;2023-03-14T03:22:08;13.57;;;8.80;;
62574;SDS011;53112;45.602;11.904;2023-03-14T03:24:34;16.83;;;8.93;;
62574;SDS011;53112;45.602;11.904;2023-03-14T03:27:00;24.05;;;9.80;;
62574;SDS011;53112;45.602;11.904;2023-03-14T03:29:25;12.80;;;9.20;;
62574;SDS011;53112;45.602;11.904;2023-03-14T03:31:52;15.45;;;9.23;;
62574;SDS011;53112;45.602;11.904;2023-03-14T03:34:18;20.48;;;10.32;;
62574;SDS011;53112;45.602;11.904;2023-03-14T03:36:44;15.82;;;9.98;;
62574;SDS011;53112;45.602;11.904;2023-03-14T03:39:10;14.25;;;8.88;;
62574;SDS011;53112;45.602;11.904;2023-03-14T03:41:35;14.30;;;9.30;;
62574;SDS011;53112;45.602;11.904;2023-03-14T03:44:01;14.70;;;9.68;;
62574;SDS011;53112;45.602;11.904;2023-03-14T03:46:27;18.50;;;10.18;;
62574;SDS011;53112;45.602;11.904;2023-03-14T03:48:54;17.25;;;10.25;;
62574;SDS011;53112;45.602;11.904;2023-03-14T03:51:21;16.63;;;10.38;;
62574;SDS011;53112;45.602;11.904;2023-03-14T03:53:47;17.70;;;10.27;;
62574;SDS011;53112;45.602;11.904;2023-03-14T03:56:13;14.48;;;9.93;;
62574;SDS011;53112;45.602;11.904;2023-03-14T03:58:39;14.23;;;9.68;;
62574;SDS011;53112;45.602;11.904;2023-03-14T04:01:05;14.10;;;9.30;;
62574;SDS011;53112;45.602;11.904;2023-03-14T04:03:32;14.82;;;9.90;;
62574;SDS011;53112;45.602;11.904;2023-03-14T04:06:01;16.10;;;10.10;;
62574;SDS011;53112;45.602;11.904;2023-03-14T04:08:29;15.93;;;9.88;;
62574;SDS011;53112;45.602;11.904;2023-03-14T04:10:58;17.05;;;10.68;;
62574;SDS011;53112;45.602;11.904;2023-03-14T04:13:26;16.67;;;10.25;;
62574;SDS011;53112;45.602;11.904;2023-03-14T04:15:53;16.45;;;10.35;;
62574;SDS011;53112;45.602;11.904;2023-03-14T04:18:20;17.98;;;10.20;;
62574;SDS011;53112;45.602;11.904;2023-03-14T04:20:53;15.93;;;9.07;;
62574;SDS011;53112;45.602;11.904;2023-03-14T04:23:20;17.88;;;8.93;;
62574;SDS011;53112;45.602;11.904;2023-03-14T04:25:49;14.13;;;8.73;;
62574;SDS011;53112;45.602;11.904;2023-03-14T04:28:16;19.17;;;9.23;;
62574;SDS011;53112;45.602;11.904;2023-03-14T04:30:42;12.95;;;8.30;;
62574;SDS011;53112;45.602;11.904;2023-03-14T04:33:08;15.18;;;8.40;;
62574;SDS011;53112;45.602;11.904;2023-03-14T04:35:35;13.32;;;8.20;;
62574;SDS011;53112;45.602;11.904;2023-03-14T04:38:01;14.05;;;8.80;;
62574;SDS011;53112;45.602;11.904;2023-03-14T04:40:27;14.27;;;8.27;;
62574;SDS011;53112;45.602;11.904;2023-03-14T04:42:53;13.68;;;8.73;;
62574;SDS011;53112;45.602;11.904;2023-03-14T04:45:19;13.98;;;8.13;;
62574;SDS011;53112;45.602;11.904;2023-03-14T04:47:45;17.10;;;8.82;;
62574;SDS011;53112;45.602;11.904;2023-03-14T04:50:11;12.43;;;8.20;;
62574;SDS011;53112;45.602;11.904;2023-03-14T04:52:37;14.75;;;8.25;;
62574;SDS011;53112;45.602;11.904;2023-03-14T04:55:03;13.73;;;8.60;;
62574;SDS011;53112;45.602;11.904;2023-03-14T04:57:29;15.30;;;8.40;;
62574;SDS011;53112;45.602;11.904;2023-03-14T04:59:55;12.32;;;7.93;;
62574;SDS011;53112;45.602;11.904;2023-03-14T05:04:50;15.07;;;7.72;;
62574;SDS011;53112;45.602;11.904;2023-03-14T05:09:45;14.43;;;8.25;;
62574;SDS011;53112;45.602;11.904;2023-03-14T05:12:11;14.88;;;8.00;;
62574;SDS011;53112;45.602;11.904;2023-03-14T05:14:37;13.43;;;8.02;;
62574;SDS011;53112;45.602;11.904;2023-03-14T05:17:04;16.55;;;9.02;;
62574;SDS011;53112;45.602;11.904;2023-03-14T05:19:30;14.40;;;8.45;;
62574;SDS011;53112;45.602;11.904;2023-03-14T05:21:56;13.18;;;7.80;;
62574;SDS011;53112;45.602;11.904;2023-03-14T05:24:22;17.83;;;9.02;;
62574;SDS011;53112;45.602;11.904;2023-03-14T05:26:48;14.93;;;8.45;;
62574;SDS011;53112;45.602;11.904;2023-03-14T05:29:14;14.10;;;8.95;;
62574;SDS011;53112;45.602;11.904;2023-03-14T05:31:40;14.48;;;9.18;;
62574;SDS011;53112;45.602;11.904;2023-03-14T05:34:06;17.00;;;9.70;;
62574;SDS011;53112;45.602;11.904;2023-03-14T05:36:32;16.55;;;10.10;;
62574;SDS011;53112;45.602;11.904;2023-03-14T05:38:58;13.07;;;8.80;;
62574;SDS011;53112;45.602;11.904;2023-03-14T05:41:24;13.07;;;8.25;;
62574;SDS011;53112;45.602;11.904;2023-03-14T05:43:50;16.67;;;8.73;;
62574;SDS011;53112;45.602;11.904;2023-03-14T05:46:16;14.60;;;8.70;;
62574;SDS011;53112;45.602;11.904;2023-03-14T05:48:41;16.67;;;9.05;;
62574;SDS011;53112;45.602;11.904;2023-03-14T05:51:07;13.68;;;8.45;;
62574;SDS011;53112;45.602;11.904;2023-03-14T05:53:33;16.30;;;8.68;;
62574;SDS011;53112;45.602;11.904;2023-03-14T05:55:59;13.00;;;8.38;;
62574;SDS011;53112;45.602;11.904;2023-03-14T05:58:26;14.52;;;9.00;;
62574;SDS011;53112;45.602;11.904;2023-03-14T06:00:51;18.40;;;9.60;;
62574;SDS011;53112;45.602;11.904;2023-03-14T06:03:17;16.50;;;9.13;;
62574;SDS011;53112;45.602;11.904;2023-03-14T06:05:43;15.52;;;8.88;;
62574;SDS011;53112;45.602;11.904;2023-03-14T06:08:09;15.15;;;8.55;;
62574;SDS011;53112;45.602;11.904;2023-03-14T06:10:35;13.75;;;8.57;;
62574;SDS011;53112;45.602;11.904;2023-03-14T06:13:02;13.55;;;7.65;;
62574;SDS011;53112;45.602;11.904;2023-03-14T06:15:28;14.85;;;8.68;;
62574;SDS011;53112;45.602;11.904;2023-03-14T06:17:54;12.55;;;8.02;;
62574;SDS011;53112;45.602;11.904;2023-03-14T06:20:21;14.38;;;7.97;;
62574;SDS011;53112;45.602;11.904;2023-03-14T06:22:47;13.65;;;7.97;;
62574;SDS011;53112;45.602;11.904;2023-03-14T06:25:13;12.77;;;8.43;;
62574;SDS011;53112;45.602;11.904;2023-03-14T06:27:40;15.77;;;8.93;;
62574;SDS011;53112;45.602;11.904;2023-03-14T06:30:06;16.30;;;8.85;;
62574;SDS011;53112;45.602;11.904;2023-03-14T06:32:32;18.67;;;8.70;;
62574;SDS011;53112;45.602;11.904;2023-03-14T06:34:58;17.17;;;8.57;;
62574;SDS011;53112;45.602;11.904;2023-03-14T06:37:28;13.73;;;7.63;;
62574;SDS011;53112;45.602;11.904;2023-03-14T06:39:55;16.15;;;8.52;;
62574;SDS011;53112;45.602;11.904;2023-03-14T06:42:21;13.00;;;8.02;;
62574;SDS011;53112;45.602;11.904;2023-03-14T06:44:47;15.27;;;8.25;;
62574;SDS011;53112;45.602;11.904;2023-03-14T06:47:13;13.10;;;8.02;;
62574;SDS011;53112;45.602;11.904;2023-03-14T06:49:39;14.95;;;7.95;;
62574;SDS011;53112;45.602;11.904;2023-03-14T06:52:05;12.90;;;7.90;;
62574;SDS011;53112;45.602;11.904;2023-03-14T06:54:31;15.73;;;8.55;;
62574;SDS011;53112;45.602;11.904;2023-03-14T06:56:57;13.93;;;8.10;;
62574;SDS011;53112;45.602;11.904;2023-03-14T06:59:23;12.25;;;7.60;;
62574;SDS011;53112;45.602;11.904;2023-03-14T07:01:49;17.70;;;8.65;;
62574;SDS011;53112;45.602;11.904;2023-03-14T07:04:16;11.13;;;7.68;;
62574;SDS011;53112;45.602;11.904;2023-03-14T07:06:42;15.13;;;7.70;;
62574;SDS011;53112;45.602;11.904;2023-03-14T07:09:13;12.80;;;7.95;;
62574;SDS011;53112;45.602;11.904;2023-03-14T07:11:42;15.57;;;8.18;;
62574;SDS011;53112;45.602;11.904;2023-03-14T07:14:08;14.10;;;7.63;;
62574;SDS011;53112;45.602;11.904;2023-03-14T07:16:34;17.80;;;9.82;;
62574;SDS011;53112;45.602;11.904;2023-03-14T07:19:00;17.15;;;9.32;;
62574;SDS011;53112;45.602;11.904;2023-03-14T07:21:27;20.75;;;11.02;;
62574;SDS011;53112;45.602;11.904;2023-03-14T07:23:53;16.80;;;9.93;;
62574;SDS011;53112;45.602;11.904;2023-03-14T07:26:19;16.73;;;9.65;;
62574;SDS011;53112;45.602;11.904;2023-03-14T07:28:45;15.40;;;9.50;;
62574;SDS011;53112;45.602;11.904;2023-03-14T07:31:11;15.77;;;8.98;;
62574;SDS011;53112;45.602;11.904;2023-03-14T07:33:37;16.00;;;10.05;;
62574;SDS011;53112;45.602;11.904;2023-03-14T07:36:03;15.55;;;9.93;;
62574;SDS011;53112;45.602;11.904;2023-03-14T07:38:29;14.00;;;9.02;;
62574;SDS011;53112;45.602;11.904;2023-03-14T07:41:02;14.48;;;9.35;;
62574;SDS011;53112;45.602;11.904;2023-03-14T07:43:30;14.50;;;9.10;;
62574;SDS011;53112;45.602;11.904;2023-03-14T07:45:56;17.95;;;9.77;;
62574;SDS011;53112;45.602;11.904;2023-03-14T07:48:21;16.48;;;9.90;;
62574;SDS011;53112;45.602;11.904;2023-03-14T07:50:50;15.93;;;9.77;;
62574;SDS011;53112;45.602;11.904;2023-03-14T07:53:17;18.33;;;9.52;;
62574;SDS011;53112;45.602;11.904;2023-03-14T07:55:43;17.23;;;10.02;;
62574;SDS011;53112;45.602;11.904;2023-03-14T07:58:10;15.93;;;9.93;;
62574;SDS011;53112;45.602;11.904;2023-03-14T08:00:36;18.33;;;9.82;;
62574;SDS011;53112;45.602;11.904;2023-03-14T08:03:02;14.20;;;9.30;;
62574;SDS011;53112;45.602;11.904;2023-03-14T08:05:28;15.00;;;9.57;;
62574;SDS011;53112;45.602;11.904;2023-03-14T08:07:54;17.42;;;10.38;;
62574;SDS011;53112;45.602;11.904;2023-03-14T08:10:19;15.25;;;9.23;;
62574;SDS011;53112;45.602;11.904;2023-03-14T08:12:53;18.15;;;10.20;;
62574;SDS011;53112;45.602;11.904;2023-03-14T08:15:20;16.23;;;9.27;;
62574;SDS011;53112;45.602;11.904;2023-03-14T08:17:46;17.95;;;9.93;;
62574;SDS011;53112;45.602;11.904;2023-03-14T08:20:19;17.17;;;9.68;;
62574;SDS011;53112;45.602;11.904;2023-03-14T08:22:47;17.25;;;9.73;;
62574;SDS011;53112;45.602;11.904;2023-03-14T08:25:13;19.23;;;9.63;;
62574;SDS011;53112;45.602;11.904;2023-03-14T08:27:39;19.80;;;9.85;;
62574;SDS011;53112;45.602;11.904;2023-03-14T08:30:07;17.55;;;9.73;;
62574;SDS011;53112;45.602;11.904;2023-03-14T08:32:35;19.23;;;10.32;;
62574;SDS011;53112;45.602;11.904;2023-03-14T08:35:01;14.65;;;9.88;;
62574;SDS011;53112;45.602;11.904;2023-03-14T08:37:27;16.83;;;10.18;;
62574;SDS011;53112;45.602;11.904;2023-03-14T08:39:53;16.90;;;10.10;;
62574;SDS011;53112;45.602;11.904;2023-03-14T08:42:19;14.38;;;9.63;;
62574;SDS011;53112;45.602;11.904;2023-03-14T08:44:45;19.38;;;10.45;;
